Time;durP1;ratioP1;P1;durP2;ratioP2;P2;SDS_P1;SDS_P2;PMS_P1;PMS_P2;Temp;Humidity;BMP_temperature;BMP_pressure;BME280_temperature;BME280_humidity;BME280_pressure;Samples;Min_cycle;Max_cycle;Signal;HPM_P1;HPM_P2
2021/06/16 00:00:17;;;;;;;9.33;2.60;;;18.70;99.90;;;;;;1931844;73;21129;-76
2021/06/16 00:02:45;;;;;;;11.63;2.85;;;18.60;99.90;;;;;;1932357;73;21055;-76
2021/06/16 00:05:15;;;;;;;11.18;2.80;;;18.60;99.90;;;;;;1932381;73;21104;-77
2021/06/16 00:07:43;;;;;;;7.10;2.65;;;18.60;99.90;;;;;;1932212;73;21501;-77
2021/06/16 00:10:12;;;;;;;11.12;2.70;;;18.60;99.90;;;;;;1932215;74;21106;-77
2021/06/16 00:12:40;;;;;;;7.87;2.70;;;18.60;99.90;;;;;;1932288;73;21136;-76
2021/06/16 00:15:10;;;;;;;7.22;2.95;;;18.60;99.90;;;;;;1932411;73;21071;-76
2021/06/16 00:17:39;;;;;;;7.03;2.40;;;18.50;99.90;;;;;;1931766;73;21164;-76
2021/06/16 00:20:07;;;;;;;7.40;2.98;;;18.60;99.90;;;;;;1933220;74;21506;-76
2021/06/16 00:22:34;;;;;;;14.38;2.90;;;18.50;99.90;;;;;;1933321;73;21862;-76
2021/06/16 00:25:02;;;;;;;8.75;2.85;;;18.50;99.90;;;;;;1932963;73;21525;-76
2021/06/16 00:27:30;;;;;;;11.18;3.45;;;18.50;99.90;;;;;;1932289;74;21164;-76
2021/06/16 00:29:58;;;;;;;14.13;3.22;;;18.50;99.90;;;;;;1932191;73;21114;-76
2021/06/16 00:32:25;;;;;;;12.85;3.25;;;18.50;99.90;;;;;;1932370;73;21153;-76
2021/06/16 00:34:52;;;;;;;12.70;3.02;;;18.50;99.90;;;;;;1932415;73;21160;-76
2021/06/16 00:37:20;;;;;;;8.60;2.95;;;18.50;99.90;;;;;;1932389;73;21137;-77
2021/06/16 00:39:47;;;;;;;10.65;3.05;;;18.50;99.90;;;;;;1932092;74;21541;-77
2021/06/16 00:42:15;;;;;;;11.48;2.75;;;18.40;99.90;;;;;;1932429;74;21082;-77
2021/06/16 00:44:43;;;;;;;7.60;2.70;;;18.40;99.90;;;;;;1932242;73;21136;-77
2021/06/16 00:47:10;;;;;;;11.83;2.95;;;18.30;99.90;;;;;;1932360;74;21044;-77
2021/06/16 00:49:38;;;;;;;11.22;2.87;;;18.30;99.90;;;;;;1932161;73;21103;-76
2021/06/16 00:52:05;;;;;;;7.12;2.47;;;18.30;99.90;;;;;;1932374;73;21509;-77
2021/06/16 00:54:34;;;;;;;13.53;2.77;;;18.30;99.90;;;;;;1932066;73;21128;-76
2021/06/16 00:57:03;;;;;;;9.38;2.47;;;18.30;99.90;;;;;;1932248;73;21126;-76
2021/06/16 00:59:39;;;;;;;11.20;3.02;;;18.30;99.90;;;;;;1932420;74;21083;-77
2021/06/16 01:02:08;;;;;;;8.63;2.83;;;18.20;99.90;;;;;;1930415;73;21044;-77
2021/06/16 01:04:36;;;;;;;7.08;2.62;;;18.20;99.90;;;;;;1932437;73;21154;-76
2021/06/16 01:07:07;;;;;;;9.75;2.90;;;18.20;99.90;;;;;;1932630;73;21079;-76
2021/06/16 01:09:43;;;;;;;8.23;2.95;;;18.20;99.90;;;;;;1932759;74;21063;-76
2021/06/16 01:12:33;;;;;;;8.25;2.70;;;18.20;99.90;;;;;;1932735;74;21121;-77
2021/06/16 01:15:10;;;;;;;7.08;2.67;;;18.20;99.90;;;;;;1932633;73;21083;-78
2021/06/16 01:17:50;;;;;;;9.60;2.90;;;18.10;99.90;;;;;;1932465;73;21059;-77
2021/06/16 01:20:26;;;;;;;11.70;2.70;;;18.10;99.90;;;;;;1932262;73;21132;-76
2021/06/16 01:23:11;;;;;;;8.40;2.83;;;18.10;99.90;;;;;;1929075;73;21045;-78
2021/06/16 01:25:51;;;;;;;7.30;2.62;;;18.00;99.90;;;;;;1932195;73;21160;-77
2021/06/16 01:28:21;;;;;;;8.43;2.80;;;18.00;99.90;;;;;;1932324;73;21226;-76
2021/06/16 01:30:50;;;;;;;14.65;3.30;;;18.00;99.90;;;;;;1932050;73;21584;-76
2021/06/16 01:33:19;;;;;;;10.78;3.05;;;17.90;99.90;;;;;;1932568;74;21084;-77
2021/06/16 01:35:51;;;;;;;10.53;3.08;;;17.90;99.90;;;;;;1932437;73;21074;-76
2021/06/16 01:38:20;;;;;;;9.58;3.17;;;17.90;99.90;;;;;;1932472;73;21138;-76
2021/06/16 01:40:51;;;;;;;10.63;2.83;;;17.90;99.90;;;;;;1932210;73;21091;-78
2021/06/16 01:43:21;;;;;;;5.55;2.70;;;17.90;99.90;;;;;;1932242;74;21102;-77
2021/06/16 01:45:51;;;;;;;11.85;2.95;;;17.90;99.90;;;;;;1932404;74;21087;-77
2021/06/16 01:48:20;;;;;;;9.63;2.83;;;17.90;99.90;;;;;;1932452;73;21157;-77
2021/06/16 01:50:51;;;;;;;12.13;3.30;;;17.80;99.90;;;;;;1932338;73;21118;-78
2021/06/16 01:53:20;;;;;;;8.20;3.08;;;17.90;99.90;;;;;;1932500;73;21071;-77
2021/06/16 01:55:51;;;;;;;9.13;3.02;;;17.90;99.90;;;;;;1933158;74;21047;-77
2021/06/16 01:58:20;;;;;;;8.98;3.35;;;17.90;99.90;;;;;;1933266;74;21133;-77
2021/06/16 02:00:49;;;;;;;9.65;2.80;;;17.80;99.90;;;;;;1933047;73;21133;-77
2021/06/16 02:03:17;;;;;;;8.18;2.80;;;17.80;99.90;;;;;;1933405;74;21012;-77
2021/06/16 02:05:44;;;;;;;11.45;3.20;;;17.70;99.90;;;;;;1932525;74;21079;-76
2021/06/16 02:08:22;;;;;;;13.93;3.22;;;17.80;99.90;;;;;;1932257;73;21144;-77
2021/06/16 02:10:52;;;;;;;8.43;3.00;;;17.70;99.90;;;;;;1931741;73;21118;-77
2021/06/16 02:13:32;;;;;;;8.08;2.98;;;17.70;99.90;;;;;;1932374;73;21565;-77
2021/06/16 02:16:08;;;;;;;7.40;2.90;;;17.70;99.90;;;;;;1932554;73;21105;-78
2021/06/16 02:18:48;;;;;;;8.40;3.15;;;17.70;99.90;;;;;;1932239;74;21592;-78
2021/06/16 02:21:16;;;;;;;8.30;3.25;;;17.70;99.90;;;;;;1932382;74;21055;-77
2021/06/16 02:23:44;;;;;;;8.75;3.20;;;17.70;99.90;;;;;;1932152;74;21044;-77
2021/06/16 02:26:16;;;;;;;10.03;3.10;;;17.70;99.90;;;;;;1932300;74;21593;-77
2021/06/16 02:28:44;;;;;;;7.43;3.17;;;17.60;99.90;;;;;;1932619;73;21078;-77
2021/06/16 02:31:12;;;;;;;11.73;3.50;;;17.70;99.90;;;;;;1932596;74;21083;-77
2021/06/16 02:33:40;;;;;;;9.08;3.12;;;17.60;99.90;;;;;;1932738;74;21039;-77
2021/06/16 02:36:10;;;;;;;9.95;3.37;;;17.70;99.90;;;;;;1933111;73;21039;-77
2021/06/16 02:38:41;;;;;;;9.48;3.02;;;17.70;99.90;;;;;;1933099;74;21039;-77
2021/06/16 02:41:11;;;;;;;7.95;3.20;;;17.60;99.90;;;;;;1932733;73;21095;-76
2021/06/16 02:43:39;;;;;;;10.40;3.45;;;17.60;99.90;;;;;;1932852;73;21175;-77
2021/06/16 02:46:10;;;;;;;7.40;3.25;;;17.50;99.90;;;;;;1932760;73;21564;-77
2021/06/16 02:48:44;;;;;;;8.68;3.42;;;17.50;99.90;;;;;;1932551;73;21051;-77
2021/06/16 02:51:13;;;;;;;12.63;3.45;;;17.50;99.90;;;;;;1932426;73;21119;-77
2021/06/16 02:53:43;;;;;;;9.43;3.25;;;17.40;99.90;;;;;;1932485;74;21056;-77
2021/06/16 02:56:11;;;;;;;7.05;3.17;;;17.40;99.90;;;;;;1932520;74;21212;-77
2021/06/16 02:58:42;;;;;;;14.18;3.58;;;17.40;99.90;;;;;;1932313;73;22246;-77
2021/06/16 03:01:13;;;;;;;11.05;3.47;;;17.40;99.90;;;;;;1932318;74;21180;-77
2021/06/16 03:03:43;;;;;;;8.53;2.90;;;17.40;99.90;;;;;;1932145;73;21063;-77
2021/06/16 03:06:12;;;;;;;9.13;3.27;;;17.40;99.90;;;;;;1932390;74;21546;-77
2021/06/16 03:08:43;;;;;;;10.18;3.70;;;17.30;99.90;;;;;;1932406;74;21203;-77
2021/06/16 03:11:12;;;;;;;8.85;3.22;;;17.30;99.90;;;;;;1932241;73;21970;-77
2021/06/16 03:13:41;;;;;;;9.05;3.30;;;17.30;99.90;;;;;;1932752;73;21098;-77
2021/06/16 03:16:09;;;;;;;11.22;3.65;;;17.30;99.90;;;;;;1933785;74;21137;-77
2021/06/16 03:18:37;;;;;;;12.73;3.67;;;17.30;99.90;;;;;;1933440;73;21164;-77
2021/06/16 03:21:05;;;;;;;9.60;3.60;;;17.30;99.90;;;;;;1932617;73;21612;-77
2021/06/16 03:23:34;;;;;;;9.63;3.65;;;17.30;99.90;;;;;;1932569;73;21056;-77
2021/06/16 03:26:02;;;;;;;7.95;3.33;;;17.30;99.90;;;;;;1932392;74;21145;-77
2021/06/16 03:28:31;;;;;;;9.70;3.67;;;17.20;99.90;;;;;;1932457;74;21060;-77
2021/06/16 03:31:00;;;;;;;13.35;3.70;;;17.20;99.90;;;;;;1932141;73;21118;-77
2021/06/16 03:33:28;;;;;;;11.60;3.42;;;17.20;99.90;;;;;;1932320;73;21169;-77
2021/06/16 03:35:57;;;;;;;6.83;3.02;;;17.20;99.90;;;;;;1932170;73;21202;-76
2021/06/16 03:38:26;;;;;;;8.98;3.85;;;17.20;99.90;;;;;;1932263;74;21588;-77
2021/06/16 03:40:54;;;;;;;14.58;4.08;;;17.20;99.90;;;;;;1933071;73;21055;-77
2021/06/16 03:43:23;;;;;;;10.58;3.67;;;17.20;99.90;;;;;;1933391;73;21459;-77
2021/06/16 03:45:51;;;;;;;15.15;3.77;;;17.20;99.90;;;;;;1932355;73;21155;-77
2021/06/16 03:48:22;;;;;;;11.22;3.83;;;17.20;99.90;;;;;;1932490;74;21148;-77
2021/06/16 03:50:51;;;;;;;11.08;3.65;;;17.20;99.90;;;;;;1932201;73;21095;-77
2021/06/16 03:53:19;;;;;;;9.13;3.70;;;17.20;99.90;;;;;;1932339;74;21109;-77
2021/06/16 03:55:49;;;;;;;7.45;3.70;;;17.20;99.90;;;;;;1932343;74;21136;-77
2021/06/16 03:58:17;;;;;;;8.70;3.60;;;17.10;99.90;;;;;;1932578;73;21059;-76
2021/06/16 04:00:45;;;;;;;8.80;3.25;;;17.20;99.90;;;;;;1932195;73;21114;-77
2021/06/16 04:03:13;;;;;;;7.37;3.27;;;17.20;99.90;;;;;;1931999;73;21026;-76
2021/06/16 04:05:42;;;;;;;11.05;3.35;;;17.20;99.90;;;;;;1932467;74;21032;-77
2021/06/16 04:08:12;;;;;;;11.35;3.40;;;17.20;99.90;;;;;;1932376;74;21083;-77
2021/06/16 04:10:41;;;;;;;8.13;3.52;;;17.20;99.90;;;;;;1932348;74;21051;-78
2021/06/16 04:13:09;;;;;;;11.65;4.22;;;17.20;99.90;;;;;;1932307;73;21036;-77
2021/06/16 04:15:37;;;;;;;12.95;4.40;;;17.30;99.90;;;;;;1932589;74;21048;-77
2021/06/16 04:18:06;;;;;;;10.40;4.30;;;17.30;99.90;;;;;;1932585;73;21113;-77
2021/06/16 04:20:34;;;;;;;10.78;4.47;;;17.30;99.90;;;;;;1932488;73;21196;-78
2021/06/16 04:23:02;;;;;;;10.45;4.00;;;17.30;99.90;;;;;;1932954;74;21063;-76
2021/06/16 04:25:29;;;;;;;10.13;4.00;;;17.40;99.90;;;;;;1932855;73;21137;-77
2021/06/16 04:27:58;;;;;;;11.43;3.90;;;17.40;99.90;;;;;;1932846;73;21016;-77
2021/06/16 04:30:26;;;;;;;12.78;4.28;;;17.50;99.90;;;;;;1932775;74;21557;-77
2021/06/16 04:32:55;;;;;;;10.05;3.65;;;17.50;99.90;;;;;;1932786;73;21102;-77
2021/06/16 04:35:22;;;;;;;11.45;3.85;;;17.50;99.90;;;;;;1932682;73;22128;-76
2021/06/16 04:37:50;;;;;;;7.65;3.83;;;17.60;99.90;;;;;;1932398;73;21043;-76
2021/06/16 04:40:17;;;;;;;9.63;4.00;;;17.60;99.90;;;;;;1927479;74;21122;-76
2021/06/16 04:42:45;;;;;;;10.25;3.90;;;17.60;99.90;;;;;;1925683;74;21058;-77
2021/06/16 04:45:13;;;;;;;11.60;4.58;;;17.70;99.90;;;;;;1932320;73;21079;-78
2021/06/16 04:47:40;;;;;;;11.12;4.03;;;17.80;99.90;;;;;;1932262;74;21187;-76
2021/06/16 04:50:09;;;;;;;8.88;3.72;;;17.80;99.90;;;;;;1931969;73;21044;-77
2021/06/16 04:52:37;;;;;;;14.07;3.72;;;17.80;99.90;;;;;;1932200;73;21156;-76
2021/06/16 04:55:07;;;;;;;13.13;3.95;;;17.90;99.90;;;;;;1932102;73;21079;-76
2021/06/16 04:57:35;;;;;;;11.45;3.90;;;18.00;99.90;;;;;;1931852;73;21077;-73
2021/06/16 05:00:05;;;;;;;9.28;3.40;;;18.00;99.90;;;;;;1931969;74;21112;-72
2021/06/16 05:02:32;;;;;;;10.43;3.87;;;18.00;99.90;;;;;;1926525;74;21076;-72
2021/06/16 05:05:00;;;;;;;11.00;3.90;;;18.00;99.90;;;;;;1933221;74;21076;-73
2021/06/16 05:07:27;;;;;;;8.18;3.58;;;18.10;99.90;;;;;;1932888;73;21085;-72
2021/06/16 05:09:55;;;;;;;6.28;3.30;;;18.10;99.90;;;;;;1932347;73;21060;-76
2021/06/16 05:12:22;;;;;;;10.00;3.20;;;18.20;99.90;;;;;;1930783;73;21363;-76
2021/06/16 05:14:50;;;;;;;9.33;3.33;;;18.20;99.90;;;;;;1930356;73;21490;-76
2021/06/16 05:17:18;;;;;;;8.33;3.52;;;18.30;99.90;;;;;;1931801;73;21129;-76
2021/06/16 05:19:45;;;;;;;8.73;3.50;;;18.30;99.90;;;;;;1933687;73;21122;-77
2021/06/16 05:22:15;;;;;;;10.13;3.60;;;18.30;99.90;;;;;;1930706;74;21682;-76
2021/06/16 05:24:44;;;;;;;12.68;3.27;;;18.40;99.90;;;;;;1908440;74;21576;-76
2021/06/16 05:27:19;;;;;;;9.93;3.25;;;18.30;99.90;;;;;;1926752;73;21625;-77
2021/06/16 05:29:46;;;;;;;;;;;18.30;99.90;;;;;;1952134;72;21071;-75
2021/06/16 05:32:14;;;;;;;10.20;3.30;;;18.40;99.90;;;;;;1932249;73;20190;-76
2021/06/16 05:34:41;;;;;;;7.03;3.45;;;18.40;99.90;;;;;;1932535;74;21067;-76
2021/06/16 05:37:09;;;;;;;9.43;3.62;;;18.50;99.90;;;;;;1926471;73;21094;-76
2021/06/16 05:39:36;;;;;;;9.33;3.10;;;18.50;99.90;;;;;;1932271;73;21097;-76
2021/06/16 05:42:04;;;;;;;12.37;3.25;;;18.60;99.90;;;;;;1933727;73;21003;-79
2021/06/16 05:44:33;;;;;;;6.15;2.95;;;18.70;99.90;;;;;;1934399;74;21574;-82
2021/06/16 05:47:01;;;;;;;12.70;3.35;;;18.70;99.90;;;;;;1931380;74;21102;-80
2021/06/16 05:49:29;;;;;;;7.05;2.72;;;18.80;99.90;;;;;;1934973;74;21140;-81
2021/06/16 05:51:56;;;;;;;7.10;3.00;;;18.90;99.90;;;;;;1934584;74;21118;-79
2021/06/16 05:54:24;;;;;;;9.68;3.35;;;19.00;99.90;;;;;;1932784;73;21062;-77
2021/06/16 05:56:52;;;;;;;7.53;3.17;;;19.00;99.90;;;;;;1932699;74;21570;-78
2021/06/16 05:59:19;;;;;;;13.00;3.08;;;19.00;99.90;;;;;;1932674;74;21096;-77
2021/06/16 06:01:47;;;;;;;8.70;3.22;;;19.00;99.90;;;;;;1917905;73;21191;-77
2021/06/16 06:04:16;;;;;;;11.28;3.47;;;19.00;99.90;;;;;;1930176;74;21018;-77
2021/06/16 06:06:44;;;;;;;8.73;3.35;;;19.10;99.90;;;;;;1925964;73;21086;-78
2021/06/16 06:09:11;;;;;;;10.13;3.72;;;19.10;99.90;;;;;;1934481;74;21197;-80
2021/06/16 06:11:39;;;;;;;8.00;2.75;;;19.20;99.90;;;;;;1933638;73;21069;-79
2021/06/16 06:14:06;;;;;;;11.08;3.35;;;19.30;99.90;;;;;;1933700;73;21181;-79
2021/06/16 06:16:34;;;;;;;14.40;3.37;;;19.40;99.90;;;;;;1934529;74;21604;-79
2021/06/16 06:19:02;;;;;;;14.03;3.83;;;19.40;99.90;;;;;;1935525;73;21031;-79
2021/06/16 06:21:33;;;;;;;8.58;3.12;;;19.40;99.90;;;;;;1935276;73;21118;-79
2021/06/16 06:24:01;;;;;;;11.38;3.33;;;19.50;99.90;;;;;;1935344;74;21118;-79
2021/06/16 06:26:29;;;;;;;6.60;2.40;;;19.60;99.90;;;;;;1935249;74;21079;-80
2021/06/16 06:28:57;;;;;;;8.53;3.20;;;19.70;99.90;;;;;;1935330;73;21016;-79
2021/06/16 06:31:24;;;;;;;11.30;2.52;;;19.70;99.90;;;;;;1934984;73;21169;-79
2021/06/16 06:33:52;;;;;;;5.87;2.10;;;19.70;99.90;;;;;;1935371;73;21443;-78
2021/06/16 06:36:20;;;;;;;12.55;2.52;;;19.80;99.90;;;;;;1935500;73;21076;-79
2021/06/16 06:38:48;;;;;;;8.03;2.30;;;19.90;99.90;;;;;;1935520;73;22101;-79
2021/06/16 06:41:17;;;;;;;14.05;2.50;;;19.90;99.90;;;;;;1935305;73;21191;-80
2021/06/16 06:43:44;;;;;;;9.48;2.20;;;19.90;99.90;;;;;;1935187;74;21517;-79
2021/06/16 06:46:12;;;;;;;9.15;2.50;;;20.10;99.90;;;;;;1935297;74;21250;-79
2021/06/16 06:48:40;;;;;;;7.50;2.65;;;20.10;99.90;;;;;;1935313;74;21064;-78
2021/06/16 06:51:08;;;;;;;9.65;2.30;;;20.20;99.90;;;;;;1935020;73;21129;-79
2021/06/16 06:53:36;;;;;;;11.03;2.60;;;20.20;99.90;;;;;;1935310;73;21164;-80
2021/06/16 06:56:04;;;;;;;9.58;2.20;;;20.30;99.90;;;;;;1935632;73;21090;-80
2021/06/16 06:58:32;;;;;;;8.30;2.12;;;20.40;99.90;;;;;;1935608;74;21497;-81
2021/06/16 07:00:59;;;;;;;11.38;2.00;;;20.40;99.90;;;;;;1935591;73;21059;-81
2021/06/16 07:03:27;;;;;;;8.83;1.85;;;20.50;99.90;;;;;;1935624;73;21098;-81
2021/06/16 07:05:56;;;;;;;11.38;2.65;;;20.50;99.90;;;;;;1935495;73;21160;-81
2021/06/16 07:08:23;;;;;;;7.08;2.00;;;20.50;99.90;;;;;;1934789;73;21145;-81
2021/06/16 07:10:51;;;;;;;7.95;2.15;;;20.60;99.90;;;;;;1935281;73;21522;-81
2021/06/16 07:13:19;;;;;;;4.70;1.55;;;20.70;99.90;;;;;;1935313;73;21066;-82
2021/06/16 07:15:46;;;;;;;6.08;1.98;;;20.80;99.90;;;;;;1935295;73;21144;-81
2021/06/16 07:18:14;;;;;;;7.10;2.00;;;20.90;99.90;;;;;;1935251;73;21152;-81
2021/06/16 07:20:41;;;;;;;8.10;1.87;;;21.00;99.90;;;;;;1934930;73;21164;-82
2021/06/16 07:23:09;;;;;;;8.18;2.08;;;21.00;99.90;;;;;;1935204;73;21486;-82
2021/06/16 07:25:36;;;;;;;7.42;1.90;;;21.10;99.90;;;;;;1934952;74;21117;-79
2021/06/16 07:28:04;;;;;;;5.17;1.98;;;21.10;99.90;;;;;;1934838;74;21036;-78
2021/06/16 07:30:31;;;;;;;5.22;1.60;;;21.20;99.90;;;;;;1934966;73;21021;-80
2021/06/16 07:32:59;;;;;;;7.80;1.70;;;21.20;99.90;;;;;;1934837;74;21067;-79
2021/06/16 07:35:27;;;;;;;5.45;1.75;;;21.30;99.90;;;;;;1935088;74;21099;-79
2021/06/16 07:37:54;;;;;;;8.95;2.00;;;21.40;99.90;;;;;;1934950;74;21580;-79
2021/06/16 07:40:22;;;;;;;6.60;2.02;;;21.40;99.90;;;;;;1934751;73;21059;-79
2021/06/16 07:42:49;;;;;;;7.60;2.00;;;21.40;99.90;;;;;;1934886;73;21047;-79
2021/06/16 07:45:17;;;;;;;5.62;1.85;;;21.40;99.90;;;;;;1934999;74;21056;-78
2021/06/16 07:47:44;;;;;;;5.72;1.80;;;21.60;99.90;;;;;;1934899;73;21087;-79
2021/06/16 07:51:07;;;;;;;7.85;1.87;;;21.60;99.90;;;;;;1934679;73;21075;-79
2021/06/16 07:53:34;;;;;;;12.60;2.02;;;21.70;99.90;;;;;;1934332;73;21154;-79
2021/06/16 07:56:02;;;;;;;8.25;1.77;;;21.70;99.90;;;;;;1934914;73;21128;-79
2021/06/16 07:58:29;;;;;;;9.13;1.90;;;21.70;99.90;;;;;;1935049;73;21043;-79
2021/06/16 08:00:57;;;;;;;9.10;2.02;;;21.70;99.90;;;;;;1934805;73;21071;-79
2021/06/16 08:03:24;;;;;;;7.45;1.80;;;21.80;99.90;;;;;;1934889;73;21094;-79
2021/06/16 08:05:54;;;;;;;5.28;1.47;;;21.80;99.10;;;;;;1934934;73;21130;-78
2021/06/16 08:08:23;;;;;;;6.85;1.30;;;21.90;99.10;;;;;;1935077;74;21059;-79
2021/06/16 08:10:51;;;;;;;5.08;1.50;;;22.00;99.50;;;;;;1934748;73;21091;-78
2021/06/16 08:13:20;;;;;;;9.70;2.02;;;22.00;98.90;;;;;;1934983;73;21105;-79
2021/06/16 08:15:47;;;;;;;8.55;2.10;;;22.10;99.90;;;;;;1934952;73;21478;-79
2021/06/16 08:18:15;;;;;;;6.58;1.50;;;22.10;99.70;;;;;;1935017;73;21094;-79
2021/06/16 08:20:42;;;;;;;6.30;1.90;;;22.10;99.70;;;;;;1934265;73;21075;-79
2021/06/16 08:23:10;;;;;;;9.18;1.80;;;22.20;98.20;;;;;;1933161;73;21037;-79
2021/06/16 08:25:38;;;;;;;6.70;1.98;;;22.30;98.50;;;;;;1933488;74;21575;-79
2021/06/16 08:28:06;;;;;;;8.15;1.35;;;22.40;98.30;;;;;;1933611;74;21147;-79
2021/06/16 08:30:34;;;;;;;6.30;1.60;;;22.40;99.00;;;;;;1933603;73;21121;-79
2021/06/16 08:33:01;;;;;;;5.97;1.92;;;22.40;99.40;;;;;;1933581;74;21089;-79
2021/06/16 08:35:29;;;;;;;7.40;2.08;;;22.40;98.10;;;;;;1933716;74;21014;-80
2021/06/16 08:37:57;;;;;;;7.92;1.77;;;22.50;98.70;;;;;;1933555;74;21038;-79
2021/06/16 08:40:24;;;;;;;5.85;1.55;;;22.60;98.20;;;;;;1933473;73;21070;-79
2021/06/16 08:42:52;;;;;;;6.62;1.87;;;22.60;97.80;;;;;;1933353;74;21085;-77
2021/06/16 08:45:21;;;;;;;7.97;2.00;;;22.60;99.10;;;;;;1933265;73;21142;-79
2021/06/16 08:47:53;;;;;;;8.78;1.80;;;22.70;99.10;;;;;;1932985;74;21155;-79
2021/06/16 08:50:20;;;;;;;9.13;1.70;;;22.70;98.30;;;;;;1933196;73;21133;-78
2021/06/16 08:52:48;;;;;;;6.03;1.82;;;22.80;98.30;;;;;;1933183;73;21115;-79
2021/06/16 08:55:19;;;;;;;5.58;1.50;;;22.80;98.40;;;;;;1932856;74;21598;-79
2021/06/16 08:57:48;;;;;;;5.70;1.70;;;22.90;97.30;;;;;;1933203;74;21065;-79
2021/06/16 09:00:17;;;;;;;7.12;2.22;;;22.90;97.90;;;;;;1932515;73;21117;-79
2021/06/16 09:02:45;;;;;;;7.42;1.95;;;23.00;98.20;;;;;;1906633;74;21505;-79
2021/06/16 09:05:13;;;;;;;6.28;1.80;;;23.10;97.40;;;;;;1901357;75;21046;-79
2021/06/16 09:07:43;;;;;;;5.83;1.90;;;23.10;96.40;;;;;;1901367;74;21102;-79
2021/06/16 09:10:13;;;;;;;6.50;1.95;;;23.10;97.10;;;;;;1901105;74;21094;-79
2021/06/16 09:12:47;;;;;;;5.95;1.60;;;23.20;97.80;;;;;;1901347;75;21164;-79
2021/06/16 09:15:18;;;;;;;7.53;1.72;;;23.20;96.10;;;;;;1896908;75;21233;-79
2021/06/16 09:18:06;;;;;;;7.05;1.80;;;23.20;97.90;;;;;;1901693;75;21086;-79
2021/06/16 09:20:37;;;;;;;4.97;1.55;;;23.30;96.70;;;;;;1901831;74;21330;-79
2021/06/16 09:23:19;;;;;;;8.95;2.15;;;23.40;95.90;;;;;;1902149;75;21098;-79
2021/06/16 09:26:07;;;;;;;9.18;1.70;;;23.40;96.20;;;;;;1902295;75;21110;-79
2021/06/16 09:28:37;;;;;;;7.70;1.92;;;23.40;96.40;;;;;;1902604;74;21644;-79
2021/06/16 09:31:05;;;;;;;6.25;1.80;;;23.50;96.80;;;;;;1901932;74;21540;-79
2021/06/16 09:33:34;;;;;;;6.70;1.50;;;23.70;96.10;;;;;;1902401;75;21028;-79
2021/06/16 09:36:04;;;;;;;8.30;1.62;;;23.70;95.60;;;;;;1902381;74;21466;-79
2021/06/16 09:38:32;;;;;;;8.40;1.90;;;23.70;94.60;;;;;;1901880;75;21047;-81
2021/06/16 09:41:01;;;;;;;10.30;2.02;;;23.70;95.10;;;;;;1901662;74;21592;-78
2021/06/16 09:43:30;;;;;;;7.50;1.67;;;23.70;95.60;;;;;;1901710;75;21469;-80
2021/06/16 09:46:00;;;;;;;4.83;1.32;;;23.80;94.50;;;;;;1901684;74;21102;-78
2021/06/16 09:48:40;;;;;;;7.12;1.57;;;23.90;94.10;;;;;;1901573;74;21052;-78
2021/06/16 09:51:25;;;;;;;5.58;1.87;;;24.00;93.80;;;;;;1887093;74;21122;-79
2021/06/16 09:54:17;;;;;;;4.92;1.50;;;24.10;93.80;;;;;;1901536;75;21058;-79
2021/06/16 09:56:48;;;;;;;7.33;1.60;;;24.10;93.90;;;;;;1901568;75;21122;-78
2021/06/16 09:59:19;;;;;;;10.03;1.92;;;24.20;94.70;;;;;;1897236;75;21102;-78
2021/06/16 10:01:55;;;;;;;5.87;1.65;;;24.30;95.20;;;;;;1896412;74;21134;-78
2021/06/16 10:04:45;;;;;;;6.45;1.77;;;24.30;96.40;;;;;;1901271;75;21087;-79
2021/06/16 10:07:27;;;;;;;6.00;1.52;;;24.40;94.10;;;;;;1901468;74;21118;-80
2021/06/16 10:09:56;;;;;;;7.37;1.70;;;24.50;94.80;;;;;;1901669;74;21113;-79
2021/06/16 10:12:30;;;;;;;6.00;1.50;;;24.60;92.30;;;;;;1901672;75;21063;-79
2021/06/16 10:14:59;;;;;;;10.48;1.57;;;24.60;92.20;;;;;;1899414;75;21117;-79
2021/06/16 10:17:27;;;;;;;4.87;1.60;;;24.60;91.80;;;;;;1901443;75;21183;-79
2021/06/16 10:19:55;;;;;;;6.53;1.80;;;24.70;92.70;;;;;;1901669;74;21417;-79
2021/06/16 10:22:23;;;;;;;6.45;1.55;;;24.80;92.00;;;;;;1901470;75;21643;-79
2021/06/16 10:24:51;;;;;;;11.90;2.22;;;24.90;94.30;;;;;;1901610;75;21039;-79
2021/06/16 10:27:34;;;;;;;4.67;1.72;;;25.00;93.80;;;;;;1914272;74;21464;-79
2021/06/16 10:30:02;;;;;;;;;;;24.90;91.90;;;;;;1935751;73;21175;-79
2021/06/16 10:32:39;;;;;;;5.83;1.42;;;25.10;94.00;;;;;;1931668;74;20194;-79
2021/06/16 10:35:08;;;;;;;4.70;1.40;;;25.20;95.50;;;;;;1932641;74;21081;-78
2021/06/16 10:37:44;;;;;;;7.70;1.67;;;25.20;92.70;;;;;;1933092;74;21092;-79
2021/06/16 10:40:18;;;;;;;7.92;2.15;;;25.20;92.20;;;;;;1932934;73;21054;-78
2021/06/16 10:43:04;;;;;;;8.33;2.27;;;25.10;94.00;;;;;;1932937;74;21113;-79
2021/06/16 10:45:35;;;;;;;11.38;1.55;;;25.10;93.00;;;;;;1928057;74;21520;-79
2021/06/16 10:48:05;;;;;;;5.45;1.65;;;25.20;92.10;;;;;;1933534;74;21788;-79
2021/06/16 10:50:52;;;;;;;7.47;1.82;;;25.30;94.60;;;;;;1933338;73;21493;-79
2021/06/16 10:53:22;;;;;;;7.47;1.70;;;25.40;93.20;;;;;;1933556;74;21088;-79
2021/06/16 10:55:58;;;;;;;6.12;1.70;;;25.50;93.40;;;;;;1933354;74;21007;-79
2021/06/16 10:58:33;;;;;;;6.67;2.15;;;25.60;94.40;;;;;;1933246;74;21465;-79
2021/06/16 11:01:12;;;;;;;4.85;1.92;;;25.70;93.20;;;;;;1932686;73;21047;-78
2021/06/16 11:03:50;;;;;;;6.10;1.30;;;25.70;92.50;;;;;;1934436;74;21035;-79
2021/06/16 11:06:37;;;;;;;4.17;1.52;;;25.80;94.10;;;;;;1914836;73;21404;-78
2021/06/16 11:09:10;;;;;;;6.67;1.62;;;25.80;92.90;;;;;;1934308;73;21085;-79
2021/06/16 11:12:03;;;;;;;5.25;1.87;;;25.80;93.10;;;;;;1933950;73;21047;-79
2021/06/16 11:14:39;;;;;;;4.30;1.50;;;25.80;92.80;;;;;;1935270;73;21035;-79
2021/06/16 11:17:11;;;;;;;4.65;1.52;;;25.90;93.70;;;;;;1935422;74;21062;-79
2021/06/16 11:19:41;;;;;;;6.35;1.60;;;25.90;93.20;;;;;;1935531;73;21362;-79
2021/06/16 11:22:18;;;;;;;5.35;1.52;;;26.00;93.20;;;;;;1934620;73;21093;-79
2021/06/16 11:25:29;;;;;;;6.35;1.90;;;26.10;95.10;;;;;;1934796;74;21195;-79
2021/06/16 11:27:59;;;;;;;4.55;1.60;;;26.10;93.10;;;;;;1934862;74;21067;-79
2021/06/16 11:30:57;;;;;;;4.45;1.50;;;26.10;93.10;;;;;;1934574;73;21114;-79
2021/06/16 11:33:27;;;;;;;4.95;1.62;;;26.20;92.80;;;;;;1934736;74;21565;-79
2021/06/16 11:36:01;;;;;;;3.10;1.57;;;26.20;93.70;;;;;;1934592;73;21172;-78
2021/06/16 11:38:42;;;;;;;7.42;1.75;;;26.20;93.30;;;;;;1932401;73;21126;-78
2021/06/16 11:41:22;;;;;;;7.10;1.75;;;26.30;92.20;;;;;;1933308;73;21126;-80
2021/06/16 11:44:01;;;;;;;4.90;1.52;;;26.30;92.50;;;;;;1934939;74;21376;-80
2021/06/16 11:46:40;;;;;;;12.05;1.82;;;26.40;94.30;;;;;;1934889;73;21043;-79
2021/06/16 11:49:20;;;;;;;4.50;1.62;;;26.40;92.60;;;;;;1934980;73;21118;-79
2021/06/16 11:51:56;;;;;;;3.67;1.57;;;26.40;92.90;;;;;;1934487;73;21387;-78
2021/06/16 11:54:36;;;;;;;4.03;1.57;;;26.50;92.90;;;;;;1934756;73;21124;-79
2021/06/16 11:57:07;;;;;;;6.55;1.90;;;26.50;93.50;;;;;;1932806;73;21593;-79
2021/06/16 11:59:43;;;;;;;8.95;1.75;;;26.50;92.60;;;;;;1934468;74;21036;-79
2021/06/16 12:02:32;;;;;;;5.85;1.87;;;26.60;92.60;;;;;;1932918;73;21126;-79
2021/06/16 12:05:06;;;;;;;4.97;1.90;;;26.50;93.00;;;;;;1933833;73;21185;-78
2021/06/16 12:07:45;;;;;;;6.62;1.70;;;26.60;94.30;;;;;;1934072;74;21105;-78
2021/06/16 12:10:27;;;;;;;6.60;1.75;;;26.70;93.40;;;;;;1933735;73;21533;-81
2021/06/16 12:13:05;;;;;;;4.60;1.82;;;26.70;93.40;;;;;;1933934;73;21102;-78
2021/06/16 12:15:37;;;;;;;5.22;1.87;;;26.80;93.00;;;;;;1931160;73;21119;-78
2021/06/16 12:18:06;;;;;;;7.40;2.05;;;26.80;94.70;;;;;;1933529;73;21103;-79
2021/06/16 12:20:55;;;;;;;8.15;1.92;;;26.80;93.20;;;;;;1933601;73;21600;-78
2021/06/16 12:23:28;;;;;;;5.50;2.25;;;26.90;94.60;;;;;;1933757;73;21156;-78
2021/06/16 12:26:21;;;;;;;6.50;2.10;;;27.00;93.80;;;;;;1933764;74;21114;-78
2021/06/16 12:28:48;;;;;;;4.60;1.90;;;27.10;94.10;;;;;;1932907;73;21115;-79
2021/06/16 12:31:28;;;;;;;7.15;2.75;;;27.00;93.80;;;;;;1934475;73;21043;-79
2021/06/16 12:34:03;;;;;;;5.47;2.12;;;27.10;94.30;;;;;;1935331;73;21060;-79
2021/06/16 12:36:22;;;;;;;6.05;2.58;;;27.20;94.10;;;;;;1936343;73;21427;-79
2021/06/16 12:38:54;;;;;;;8.70;2.55;;;27.20;93.60;;;;;;1935154;73;21118;-79
2021/06/16 12:41:38;;;;;;;6.55;2.15;;;27.30;95.00;;;;;;1935079;73;21040;-79
2021/06/16 12:44:24;;;;;;;4.17;2.22;;;27.30;96.20;;;;;;1934824;74;21027;-78
2021/06/16 12:47:02;;;;;;;7.92;2.83;;;27.40;96.40;;;;;;1935013;74;20985;-79
2021/06/16 12:49:38;;;;;;;5.80;2.40;;;27.30;95.20;;;;;;1934701;74;20989;-78
2021/06/16 12:52:09;;;;;;;6.72;2.42;;;27.40;94.50;;;;;;1934106;73;21126;-78
2021/06/16 12:54:42;;;;;;;10.30;2.70;;;27.50;94.70;;;;;;1934158;73;21172;-78
2021/06/16 12:57:17;;;;;;;6.40;2.55;;;27.40;93.90;;;;;;1933430;73;21117;-78
2021/06/16 12:59:50;;;;;;;5.50;2.60;;;27.40;95.90;;;;;;1933760;74;21114;-78
2021/06/16 13:02:26;;;;;;;4.80;2.42;;;27.40;96.70;;;;;;1934547;74;21152;-79
2021/06/16 13:05:06;;;;;;;11.20;2.85;;;27.40;95.60;;;;;;1934937;74;21168;-79